Wayne Center, Indiana
Current Conditions -  °F | °C
As of 10:35 AM on Saturday 25 Oct 2014 (Local Time) from KGWB Reporting Station
Scattered Clouds Scattered Clouds  
Wind Chill: 59°   Ceiling: Unl
Heat Index: 59°   Visibility: 7mi
Dew Point: 52°   Wind: 7mph
Humidity: 77%   Direction: 250°WSW
Pressure: 29.9"   Gusts: NA
Location:  41.4608°N, 85.2531°W
Report Text: KGWB 251435Z AUTO 25006KT 7SM SCT011 15/11 A2990 RMK AO2
Loading
Personal Weather Stations






























Interactive Weather Map
Tropical Storm Tracking
New forecast layout! Learn more

10-Day Weather Forecast

Advertisements
Track Severe Weather on mobile